createdAt,value
2019-02-23T00:00:54.402Z,1031.96
2019-02-23T00:01:55.433Z,1031.97
2019-02-23T00:02:54.337Z,1031.95
2019-02-23T00:03:54.427Z,1031.99
2019-02-23T00:04:54.290Z,1031.96
2019-02-23T00:05:54.332Z,1032.00
2019-02-23T00:06:54.233Z,1031.97
2019-02-23T00:07:54.247Z,1031.96
2019-02-23T00:08:54.169Z,1031.87
2019-02-23T00:09:54.155Z,1031.93
2019-02-23T00:10:54.118Z,1031.87
2019-02-23T00:11:54.167Z,1031.95
2019-02-23T00:12:54.058Z,1031.98
2019-02-23T00:13:54.083Z,1032.03
2019-02-23T00:14:53.990Z,1031.96
2019-02-23T00:15:53.997Z,1032.03
2019-02-23T00:16:53.939Z,1032.05
2019-02-23T00:17:54.007Z,1032.02
2019-02-23T00:18:53.876Z,1032.05
2019-02-23T00:19:53.925Z,1032.04
2019-02-23T00:20:53.816Z,1032.04
2019-02-23T00:21:53.831Z,1032.11
2019-02-23T00:22:53.751Z,1032.15
2019-02-23T00:23:53.735Z,1032.12
2019-02-23T00:24:53.702Z,1032.11
2019-02-23T00:25:53.754Z,1032.12
2019-02-23T00:26:53.645Z,1032.05
2019-02-23T00:27:53.665Z,1032.08
2019-02-23T00:28:53.601Z,1032.06
2019-02-23T00:29:53.579Z,1032.05
2019-02-23T00:30:53.528Z,1032.04
2019-02-23T00:31:53.602Z,1032.03
2019-02-23T00:32:53.469Z,1032.01
2019-02-23T00:33:53.508Z,1032.00
2019-02-23T00:34:53.413Z,1031.98
2019-02-23T00:35:53.463Z,1031.99
2019-02-23T00:36:53.347Z,1031.95
2019-02-23T00:37:53.437Z,1031.96
2019-02-23T00:38:53.291Z,1031.96
2019-02-23T00:39:53.350Z,1031.96
2019-02-23T00:40:53.238Z,1031.96
2019-02-23T00:41:53.255Z,1031.98
2019-02-23T00:42:53.173Z,1032.02
2019-02-23T00:43:53.271Z,1032.06
2019-02-23T00:44:53.117Z,1032.07
2019-02-23T00:45:53.178Z,1032.07
2019-02-23T00:46:53.054Z,1032.13
2019-02-23T00:47:53.090Z,1032.14
2019-02-23T00:48:53.028Z,1032.13
2019-02-23T00:49:53.002Z,1032.12
2019-02-23T00:50:52.952Z,1032.13
2019-02-23T00:51:53.016Z,1032.16
2019-02-23T00:52:52.895Z,1032.15
2019-02-23T00:53:52.937Z,1032.14
2019-02-23T00:54:52.829Z,1032.14
2019-02-23T00:55:52.843Z,1032.14
2019-02-23T00:56:52.760Z,1032.18
2019-02-23T00:57:52.764Z,1032.12
2019-02-23T00:58:52.713Z,1032.16
2019-02-23T00:59:52.772Z,1032.16
2019-02-23T01:00:52.650Z,1032.19
2019-02-23T01:01:52.688Z,1032.18
2019-02-23T01:02:52.599Z,1032.22
2019-02-23T01:03:52.600Z,1032.18
2019-02-23T01:04:52.540Z,1032.15
2019-02-23T01:05:52.608Z,1032.16
2019-02-23T01:06:52.471Z,1032.13
2019-02-23T01:07:52.517Z,1032.18
2019-02-23T01:08:52.438Z,1032.13
2019-02-23T01:09:52.502Z,1032.18
2019-02-23T01:10:58.053Z,1032.15
2019-02-23T01:11:52.443Z,1032.14
2019-02-23T01:12:52.297Z,1032.17
2019-02-23T01:13:52.342Z,1032.15
2019-02-23T01:14:52.236Z,1032.16
2019-02-23T01:15:52.261Z,1032.15
2019-02-23T01:16:52.191Z,1032.13
2019-02-23T01:17:52.163Z,1032.08
2019-02-23T01:18:52.140Z,1032.03
2019-02-23T01:19:52.183Z,1032.00
2019-02-23T01:20:52.092Z,1031.99
2019-02-23T01:21:52.097Z,1031.97
2019-02-23T01:22:52.009Z,1031.93
2019-02-23T01:23:52.015Z,1031.96
2019-02-23T01:24:51.978Z,1031.90
2019-02-23T01:25:52.039Z,1031.95
2019-02-23T01:26:51.916Z,1031.95
2019-02-23T01:27:51.932Z,1031.90
2019-02-23T01:28:51.836Z,1031.92
2019-02-23T01:29:51.853Z,1031.88
2019-02-23T01:30:51.770Z,1031.88
2019-02-23T01:31:51.760Z,1031.91
2019-02-23T01:32:51.739Z,1031.85
2019-02-23T01:33:51.786Z,1031.85
2019-02-23T01:34:51.671Z,1031.84
2019-02-23T01:35:51.698Z,1031.87
2019-02-23T01:36:51.595Z,1031.84
2019-02-23T01:37:51.604Z,1031.80
2019-02-23T01:38:51.541Z,1031.76
2019-02-23T01:39:51.629Z,1031.77
2019-02-23T01:40:51.495Z,1031.77
2019-02-23T01:41:51.529Z,1031.71
2019-02-23T01:42:51.418Z,1031.65
2019-02-23T01:43:51.453Z,1031.64
2019-02-23T01:44:51.365Z,1031.70
2019-02-23T01:45:51.455Z,1031.64
2019-02-23T01:46:51.319Z,1031.64
2019-02-23T01:47:51.359Z,1031.63
2019-02-23T01:48:51.278Z,1031.60
2019-02-23T01:49:58.521Z,1031.62
2019-02-23T01:50:51.184Z,1031.60
2019-02-23T01:51:51.182Z,1031.56
2019-02-23T01:52:51.129Z,1031.60
2019-02-23T01:53:51.232Z,1031.57
2019-02-23T01:54:51.088Z,1031.63
2019-02-23T01:55:51.093Z,1031.66
2019-02-23T01:56:51.017Z,1031.61
2019-02-23T01:57:51.029Z,1031.61
2019-02-23T01:58:50.954Z,1031.63
2019-02-23T01:59:51.021Z,1031.64
2019-02-23T02:00:50.913Z,1031.64
2019-02-23T02:01:50.930Z,1031.62
2019-02-23T02:02:50.827Z,1031.61
2019-02-23T02:03:50.862Z,1031.57
2019-02-23T02:04:50.790Z,1031.61
2019-02-23T02:05:50.763Z,1031.57
2019-02-23T02:06:50.730Z,1031.55
2019-02-23T02:07:50.775Z,1031.56
2019-02-23T02:08:50.670Z,1031.52
2019-02-23T02:09:50.693Z,1031.53
2019-02-23T02:10:50.591Z,1031.51
2019-02-23T02:11:50.594Z,1031.48
2019-02-23T02:12:50.542Z,1031.49
2019-02-23T02:44:43.585Z,1031.22
2019-02-23T02:45:41.705Z,1031.20
2019-02-23T02:46:41.678Z,1031.20
2019-02-23T02:47:41.673Z,1031.22
2019-02-23T02:48:41.630Z,1031.13
2019-02-23T02:49:41.594Z,1031.15
2019-02-23T02:50:41.557Z,1031.13
2019-02-23T02:51:41.542Z,1031.11
2019-02-23T02:52:41.507Z,1031.18
2019-02-23T02:53:41.470Z,1031.12
2019-02-23T02:54:41.525Z,1031.13
2019-02-23T02:55:41.419Z,1031.16
2019-02-23T02:56:41.383Z,1031.14
2019-02-23T02:57:41.439Z,1031.15
2019-02-23T02:58:41.327Z,1031.14
2019-02-23T02:59:41.357Z,1031.12
2019-02-23T03:00:41.293Z,1031.12
2019-02-23T03:01:41.304Z,1031.08
2019-02-23T03:02:41.250Z,1031.11
2019-02-23T03:03:41.294Z,1031.08
2019-02-23T03:04:41.149Z,1031.07
2019-02-23T03:05:41.201Z,1031.09
2019-02-23T03:06:41.106Z,1031.11
2019-02-23T03:07:41.096Z,1031.07
2019-02-23T03:08:41.029Z,1031.11
2019-02-23T03:09:41.148Z,1031.08
2019-02-23T03:10:40.989Z,1031.08
2019-02-23T03:11:41.036Z,1031.10
2019-02-23T03:12:40.928Z,1031.12
2019-02-23T03:13:40.965Z,1031.05
2019-02-23T03:14:40.873Z,1031.08
2019-02-23T03:15:40.960Z,1031.11
2019-02-23T03:16:40.794Z,1031.11
2019-02-23T03:17:40.870Z,1031.09
2019-02-23T03:18:40.775Z,1031.07
2019-02-23T03:19:40.812Z,1031.09
2019-02-23T03:20:40.676Z,1031.09
2019-02-23T03:21:40.672Z,1031.10
2019-02-23T03:22:40.621Z,1031.10
2019-02-23T03:23:40.735Z,1031.12
2019-02-23T03:24:40.564Z,1031.12
2019-02-23T03:25:40.614Z,1031.10
2019-02-23T03:26:40.500Z,1031.08
2019-02-23T03:27:40.511Z,1031.05
2019-02-23T03:28:40.490Z,1031.06
2019-02-23T03:29:40.538Z,1031.06
2019-02-23T03:30:40.409Z,1031.05
2019-02-23T03:31:40.451Z,1031.09
2019-02-23T03:32:40.327Z,1031.08
2019-02-23T03:33:40.365Z,1031.09
2019-02-23T03:34:40.273Z,1031.06
2019-02-23T03:35:40.270Z,1031.07
2019-02-23T03:36:40.217Z,1031.09
2019-02-23T03:37:40.272Z,1031.09
2019-02-23T03:38:40.167Z,1031.13
2019-02-23T03:39:40.180Z,1031.16
2019-02-23T03:40:40.091Z,1031.13
2019-02-23T03:41:41.112Z,1031.15
2019-02-23T03:42:40.044Z,1031.17
2019-02-23T03:43:40.118Z,1031.18
2019-02-23T03:44:39.983Z,1031.15
2019-02-23T03:45:40.055Z,1031.16
2019-02-23T03:46:39.907Z,1031.19
2019-02-23T03:47:39.953Z,1031.19
2019-02-23T03:48:39.860Z,1031.25
2019-02-23T03:49:39.874Z,1031.26
2019-02-23T03:50:48.699Z,1031.23
2019-02-23T03:51:39.775Z,1031.28
2019-02-23T03:52:39.758Z,1031.26
2019-02-23T03:53:39.748Z,1031.27
2019-02-23T03:54:39.780Z,1031.25
2019-02-23T03:55:39.675Z,1031.27
2019-02-23T03:56:39.690Z,1031.27
2019-02-23T03:57:39.588Z,1031.26
2019-02-23T03:58:39.595Z,1031.24
2019-02-23T03:59:39.521Z,1031.24
2019-02-23T04:00:39.504Z,1031.28
2019-02-23T04:01:39.488Z,1031.27
2019-02-23T04:02:39.562Z,1031.23
2019-02-23T04:03:39.395Z,1031.29
2019-02-23T04:04:40.454Z,1031.23
2019-02-23T04:05:39.351Z,1031.23
2019-02-23T04:06:39.330Z,1031.23
2019-02-23T04:07:39.286Z,1031.26
2019-02-23T04:08:39.360Z,1031.26
2019-02-23T04:09:39.257Z,1031.25
2019-02-23T04:10:39.332Z,1031.21
2019-02-23T04:11:39.166Z,1031.23
2019-02-23T04:12:39.174Z,1031.25
2019-02-23T04:13:39.114Z,1031.24
2019-02-23T04:14:39.168Z,1031.24
2019-02-23T04:15:39.052Z,1031.21
2019-02-23T04:16:39.063Z,1031.21
2019-02-23T04:17:39.038Z,1031.29
2019-02-23T04:18:38.990Z,1031.32
2019-02-23T04:19:38.926Z,1031.33
2019-02-23T04:20:39.000Z,1031.33
2019-02-23T04:21:38.877Z,1031.31
2019-02-23T04:22:38.891Z,1031.32
2019-02-23T04:23:38.877Z,1031.32
2019-02-23T04:24:38.827Z,1031.33
2019-02-23T04:25:38.759Z,1031.40
2019-02-23T04:26:38.822Z,1031.45
2019-02-23T04:27:38.719Z,1031.46
2019-02-23T04:28:38.733Z,1031.46
2019-02-23T04:29:38.640Z,1031.44
2019-02-23T04:30:38.649Z,1031.52
2019-02-23T04:31:38.570Z,1031.48
2019-02-23T04:32:39.607Z,1031.50
2019-02-23T04:33:38.515Z,1031.50
2019-02-23T04:34:38.568Z,1031.51
2019-02-23T04:35:38.444Z,1031.46
2019-02-23T04:36:38.498Z,1031.47
2019-02-23T04:37:38.422Z,1031.49
2019-02-23T04:38:38.401Z,1031.51
2019-02-23T04:39:38.345Z,1031.51
2019-02-23T04:40:38.406Z,1031.55
2019-02-23T04:41:38.291Z,1031.58
2019-02-23T04:50:48.962Z,1031.58
2019-02-23T04:51:48.979Z,1031.60
2019-02-23T04:52:48.893Z,1031.60
2019-02-23T04:53:48.883Z,1031.64
2019-02-23T04:54:48.827Z,1031.62
2019-02-23T04:55:48.896Z,1031.59
2019-02-23T04:56:48.760Z,1031.58
2019-02-23T04:57:48.814Z,1031.54
2019-02-23T04:58:48.706Z,1031.58
2019-02-23T04:59:48.720Z,1031.58
2019-02-23T05:00:48.651Z,1031.58
2019-02-23T05:01:48.637Z,1031.53
2019-02-23T05:02:48.594Z,1031.55
2019-02-23T05:12:11.208Z,1031.54
2019-02-23T05:13:09.350Z,1031.62
2019-02-23T05:14:09.246Z,1031.58
2019-02-23T05:15:09.176Z,1031.58
2019-02-23T05:16:09.161Z,1031.62
2019-02-23T05:17:09.189Z,1031.56
2019-02-23T05:18:09.084Z,1031.58
2019-02-23T05:19:09.154Z,1031.61
2019-02-23T05:20:09.029Z,1031.55
2019-02-23T05:21:09.067Z,1031.56
2019-02-23T05:22:08.979Z,1031.57
2019-02-23T05:23:08.989Z,1031.62
2019-02-23T05:24:08.913Z,1031.60
2019-02-23T05:25:08.991Z,1031.63
2019-02-23T05:26:08.851Z,1031.60
2019-02-23T05:27:08.900Z,1031.59
2019-02-23T05:28:08.791Z,1031.60
2019-02-23T05:29:08.813Z,1031.58
2019-02-23T05:30:08.729Z,1031.55
2019-02-23T05:31:08.725Z,1031.62
2019-02-23T05:32:08.675Z,1031.61
2019-02-23T05:33:08.736Z,1031.59
2019-02-23T05:34:08.612Z,1031.56
2019-02-23T05:35:08.653Z,1031.61
2019-02-23T05:36:08.552Z,1031.66
2019-02-23T05:37:08.559Z,1031.64
2019-02-23T05:38:08.487Z,1031.67
2019-02-23T05:39:08.580Z,1031.65
2019-02-23T05:40:08.444Z,1031.67
2019-02-23T05:41:08.483Z,1031.66
2019-02-23T05:42:08.385Z,1031.64
2019-02-23T05:43:08.404Z,1031.69
2019-02-23T05:44:08.323Z,1031.75
2019-02-23T05:45:08.303Z,1031.68
2019-02-23T05:46:08.250Z,1031.73
2019-02-23T05:47:08.326Z,1031.77
2019-02-23T05:48:08.186Z,1031.80
2019-02-23T05:49:08.231Z,1031.82
2019-02-23T05:50:08.138Z,1031.88
2019-02-23T05:51:08.146Z,1031.85
2019-02-23T05:52:08.077Z,1031.92
2019-02-23T05:53:08.058Z,1031.83
2019-02-23T05:54:08.021Z,1031.89
2019-02-23T05:55:08.070Z,1031.89
2019-02-23T05:56:07.952Z,1031.92
2019-02-23T05:57:07.981Z,1031.91
2019-02-23T05:58:07.890Z,1031.90
2019-02-23T05:59:07.895Z,1031.88
2019-02-23T06:00:07.867Z,1031.88
2019-02-23T06:01:07.909Z,1031.87
2019-02-23T06:02:07.771Z,1031.85
2019-02-23T06:03:07.818Z,1031.88
2019-02-23T06:04:07.718Z,1031.89
2019-02-23T06:05:07.739Z,1031.87
2019-02-23T06:06:07.656Z,1031.88
2019-02-23T06:07:07.640Z,1031.91
2019-02-23T06:08:07.595Z,1031.88
2019-02-23T06:09:07.681Z,1031.94
2019-02-23T06:10:07.538Z,1031.92
2019-02-23T06:11:07.565Z,1031.94
2019-02-23T06:12:07.475Z,1031.96
2019-02-23T06:13:07.477Z,1031.96
2019-02-23T06:14:07.418Z,1032.00
2019-02-23T06:15:07.490Z,1032.02
2019-02-23T06:16:07.351Z,1032.03
2019-02-23T06:17:07.403Z,1031.98
2019-02-23T06:18:07.304Z,1032.04
2019-02-23T06:19:07.312Z,1032.05
2019-02-23T06:20:07.238Z,1032.10
2019-02-23T06:21:07.222Z,1032.07
2019-02-23T06:22:07.182Z,1032.08
2019-02-23T06:23:07.244Z,1032.07
2019-02-23T06:24:07.113Z,1032.16
2019-02-23T06:25:07.165Z,1032.22
2019-02-23T06:26:07.104Z,1032.08
2019-02-23T06:27:07.072Z,1032.11
2019-02-23T06:28:07.004Z,1032.07
2019-02-23T06:29:07.075Z,1032.09
2019-02-23T06:30:06.934Z,1032.06
2019-02-23T06:31:06.911Z,1032.09
2019-02-23T06:32:06.895Z,1032.12
2019-02-23T06:33:06.841Z,1032.12
2019-02-23T06:34:15.623Z,1032.07
2019-02-23T06:35:06.810Z,1032.08
2019-02-23T06:36:06.752Z,1032.11
2019-02-23T06:37:06.824Z,1032.05
2019-02-23T06:38:06.695Z,1032.03
2019-02-23T06:39:06.740Z,1032.06
2019-02-23T06:40:06.637Z,1032.01
2019-02-23T06:41:06.648Z,1032.05
2019-02-23T06:42:06.582Z,1032.08
2019-02-23T06:43:06.560Z,1032.06
2019-02-23T06:44:06.509Z,1032.05
2019-02-23T06:45:06.569Z,1032.06
2019-02-23T06:46:06.453Z,1032.09
2019-02-23T06:47:06.492Z,1032.08
2019-02-23T06:48:06.419Z,1032.11
2019-02-23T06:49:06.410Z,1032.11
2019-02-23T06:50:06.331Z,1032.18
2019-02-23T06:51:06.425Z,1032.18
2019-02-23T06:52:06.271Z,1032.19
2019-02-23T06:53:06.336Z,1032.22
2019-02-23T06:54:06.216Z,1032.22
2019-02-23T06:55:06.246Z,1032.19
2019-02-23T06:56:06.156Z,1032.19
2019-02-23T06:57:06.157Z,1032.16
2019-02-23T06:58:06.089Z,1032.19
2019-02-23T06:59:06.171Z,1032.15
2019-02-23T07:00:06.034Z,1032.17
2019-02-23T07:01:06.084Z,1032.12
2019-02-23T07:02:06.149Z,1032.13
2019-02-23T07:03:05.993Z,1032.13
2019-02-23T07:04:05.915Z,1032.14
2019-02-23T07:05:05.907Z,1032.17
2019-02-23T07:06:05.851Z,1032.13
2019-02-23T07:07:05.914Z,1032.15
2019-02-23T07:08:05.798Z,1032.14
2019-02-23T07:09:05.829Z,1032.17
2019-02-23T07:10:05.733Z,1032.17
2019-02-23T07:11:05.735Z,1032.12
2019-02-23T07:12:05.666Z,1032.16
2019-02-23T07:13:05.753Z,1032.19
2019-02-23T07:14:05.610Z,1032.19
2019-02-23T07:15:05.664Z,1032.25
2019-02-23T07:16:05.551Z,1032.26
2019-02-23T07:17:05.576Z,1032.29
2019-02-23T07:18:05.497Z,1032.23
2019-02-23T07:19:05.484Z,1032.21
2019-02-23T07:20:05.431Z,1032.24
2019-02-23T07:21:07.239Z,1032.17
2019-02-23T07:22:15.154Z,1032.19
2019-02-23T07:23:05.348Z,1032.19
2019-02-23T07:24:05.386Z,1032.18
2019-02-23T07:25:05.273Z,1032.15
2019-02-23T07:26:05.299Z,1032.13
2019-02-23T07:27:05.225Z,1032.14
2019-02-23T07:28:05.206Z,1032.14
2019-02-23T07:29:05.165Z,1032.11
2019-02-23T07:30:05.219Z,1032.15
2019-02-23T07:31:05.113Z,1032.14
2019-02-23T07:32:05.129Z,1032.10
2019-02-23T07:33:05.045Z,1032.14
2019-02-23T07:34:05.044Z,1032.13
2019-02-23T07:35:04.982Z,1032.14
2019-02-23T07:36:05.053Z,1032.14
2019-02-23T07:37:04.944Z,1032.14
2019-02-23T07:38:04.969Z,1032.19
2019-02-23T07:39:04.854Z,1032.18
2019-02-23T07:40:04.830Z,1032.20
2019-02-23T07:41:04.823Z,1032.22
2019-02-23T07:42:04.763Z,1032.21
2019-02-23T07:43:04.740Z,1032.21
2019-02-23T07:44:04.707Z,1032.24
2019-02-23T07:45:04.705Z,1032.25
2019-02-23T07:46:04.661Z,1032.26
2019-02-23T07:47:04.624Z,1032.24
2019-02-23T07:48:04.597Z,1032.27
2019-02-23T07:49:04.558Z,1032.24
2019-02-23T07:50:04.588Z,1032.22
2019-02-23T07:51:04.524Z,1032.27
2019-02-23T07:52:04.591Z,1032.25
2019-02-23T07:53:04.455Z,1032.25
2019-02-23T07:54:04.525Z,1032.28
2019-02-23T07:55:04.378Z,1032.31
2019-02-23T07:56:04.351Z,1032.35
2019-02-23T07:57:04.333Z,1032.36
2019-02-23T07:58:04.294Z,1032.38
2019-02-23T07:59:04.271Z,1032.39
2019-02-23T08:00:04.241Z,1032.43
2019-02-23T08:01:04.214Z,1032.46
2019-02-23T08:02:04.262Z,1032.45
2019-02-23T08:03:04.145Z,1032.47
2019-02-23T08:04:04.120Z,1032.50
2019-02-23T08:05:04.087Z,1032.53
2019-02-23T08:06:04.055Z,1032.51
2019-02-23T08:07:04.011Z,1032.55
2019-02-23T08:08:04.003Z,1032.49
2019-02-23T08:09:03.965Z,1032.48
2019-02-23T08:10:04.026Z,1032.51
2019-02-23T08:11:03.905Z,1032.43
2019-02-23T08:12:03.899Z,1032.42
2019-02-23T08:13:03.839Z,1032.49
2019-02-23T08:14:03.861Z,1032.45
2019-02-23T08:15:03.802Z,1032.46
2019-02-23T08:16:18.771Z,1032.46
2019-02-23T08:17:03.740Z,1032.45
2019-02-23T08:53:57.050Z,1032.36
2019-02-23T08:55:03.864Z,1032.41
2019-02-23T08:55:56.975Z,1032.37
2019-02-23T08:57:19.081Z,1032.41
2019-02-23T08:57:56.926Z,1032.40
2019-02-23T08:58:56.913Z,1032.37
2019-02-23T08:59:57.952Z,1032.36
2019-02-23T09:00:56.836Z,1032.33
2019-02-23T09:02:17.859Z,1032.35
2019-02-23T09:02:56.815Z,1032.33
2019-02-23T09:03:56.813Z,1032.31
2019-02-23T09:04:56.708Z,1032.33
2019-02-23T09:05:56.682Z,1032.31
2019-02-23T09:06:56.644Z,1032.29
2019-02-23T09:07:56.642Z,1032.23
2019-02-23T09:08:56.611Z,1032.20
2019-02-23T09:09:56.573Z,1032.26
2019-02-23T09:10:56.531Z,1032.21
2019-02-23T09:11:56.496Z,1032.25
2019-02-23T09:12:56.478Z,1032.24
2019-02-23T09:13:56.506Z,1032.20
2019-02-23T09:14:56.539Z,1032.11
2019-02-23T09:15:56.416Z,1032.11
2019-02-23T09:16:56.350Z,1032.11
2019-02-23T09:17:56.317Z,1032.15
2019-02-23T09:18:56.335Z,1032.09
2019-02-23T09:19:56.266Z,1032.08
2019-02-23T09:20:56.288Z,1032.12
2019-02-23T09:21:56.217Z,1032.12
2019-02-23T09:23:00.285Z,1032.13
2019-02-23T09:23:56.133Z,1032.10
2019-02-23T09:24:56.199Z,1032.17
2019-02-23T09:25:57.810Z,1032.16
2019-02-23T09:26:56.058Z,1032.21
2019-02-23T09:27:56.038Z,1032.21
2019-02-23T09:28:55.998Z,1032.27
2019-02-23T09:29:55.963Z,1032.23
2019-02-23T09:30:55.938Z,1032.24
2019-02-23T09:31:55.903Z,1032.22
2019-02-23T09:32:55.885Z,1032.22
2019-02-23T09:33:55.902Z,1032.24
2019-02-23T09:34:55.926Z,1032.26
2019-02-23T09:35:55.786Z,1032.31
2019-02-23T09:36:55.775Z,1032.31
2019-02-23T09:37:55.813Z,1032.31
2019-02-23T09:38:55.688Z,1032.36
2019-02-23T09:39:55.686Z,1032.38
2019-02-23T09:40:55.629Z,1032.36
2019-02-23T09:41:55.615Z,1032.36
2019-02-23T09:42:55.583Z,1032.33
2019-02-23T09:43:55.531Z,1032.39
2019-02-23T09:44:55.531Z,1032.38
2019-02-23T09:45:55.491Z,1032.36
2019-02-23T09:46:55.647Z,1032.34
2019-02-23T10:10:22.226Z,1032.23
2019-02-23T10:16:32.506Z,1032.17
2019-02-23T10:17:32.454Z,1032.19
2019-02-23T10:18:32.508Z,1032.19
2019-02-23T10:19:32.391Z,1032.20
2019-02-23T10:20:32.362Z,1032.26
2019-02-23T10:21:32.329Z,1032.22
2019-02-23T10:22:32.303Z,1032.29
2019-02-23T10:23:32.274Z,1032.17
2019-02-23T10:24:32.355Z,1032.16
2019-02-23T10:25:32.218Z,1032.19
2019-02-23T10:26:32.191Z,1032.20
2019-02-23T10:27:32.155Z,1032.15
2019-02-23T10:28:32.126Z,1032.15
2019-02-23T10:29:32.102Z,1032.15
2019-02-23T10:30:32.070Z,1032.18
2019-02-23T10:31:32.041Z,1032.11
2019-02-23T10:32:32.019Z,1032.07
2019-02-23T10:33:31.985Z,1032.02
2019-02-23T10:34:31.971Z,1032.01
2019-02-23T10:35:32.008Z,1031.98
2019-02-23T10:36:31.896Z,1032.00
2019-02-23T10:37:31.868Z,1031.93
2019-02-23T10:38:31.836Z,1031.89
2019-02-23T10:39:31.863Z,1031.87
2019-02-23T10:40:31.796Z,1031.80
2019-02-23T10:41:31.860Z,1031.84
2019-02-23T10:42:31.719Z,1031.74
2019-02-23T10:43:31.701Z,1031.76
2019-02-23T10:44:31.672Z,1031.71
2019-02-23T10:45:31.672Z,1031.68
2019-02-23T10:46:31.627Z,1031.66
2019-02-23T10:47:31.577Z,1031.61
2019-02-23T10:48:31.593Z,1031.54
2019-02-23T10:49:31.526Z,1031.55
2019-02-23T10:50:31.511Z,1031.50
2019-02-23T10:51:31.461Z,1031.55
2019-02-23T10:52:31.426Z,1031.55
2019-02-23T10:53:33.071Z,1031.53
2019-02-23T10:54:31.415Z,1031.49
2019-02-23T10:55:31.377Z,1031.50
2019-02-23T10:56:31.315Z,1031.49
2019-02-23T10:57:31.292Z,1031.47
2019-02-23T10:58:31.255Z,1031.51
2019-02-23T10:59:31.225Z,1031.48
2019-02-23T11:00:31.234Z,1031.48
2019-02-23T11:01:31.160Z,1031.45
2019-02-23T11:02:31.134Z,1031.42
2019-02-23T11:03:31.109Z,1031.39
2019-02-23T11:04:31.076Z,1031.39
2019-02-23T11:05:31.068Z,1031.36
2019-02-23T11:06:31.026Z,1031.33
2019-02-23T11:07:31.047Z,1031.36
2019-02-23T11:08:30.982Z,1031.38
2019-02-23T11:09:30.945Z,1031.37
2019-02-23T11:10:30.954Z,1031.39
2019-02-23T11:11:30.873Z,1031.36
2019-02-23T11:12:30.874Z,1031.34
2019-02-23T11:13:30.837Z,1031.36
2019-02-23T11:14:30.828Z,1031.34
2019-02-23T11:15:30.758Z,1031.36
2019-02-23T11:16:30.746Z,1031.34
2019-02-23T11:17:30.748Z,1031.35
2019-02-23T11:18:30.678Z,1031.38
2019-02-23T11:19:30.666Z,1031.42
2019-02-23T11:20:30.618Z,1031.46
2019-02-23T11:21:30.694Z,1031.45
2019-02-23T11:22:30.558Z,1031.42
2019-02-23T11:23:30.537Z,1031.44
2019-02-23T11:24:30.612Z,1031.46
2019-02-23T11:25:30.469Z,1031.45
2019-02-23T11:26:30.527Z,1031.46
2019-02-23T11:27:30.476Z,1031.43
2019-02-23T11:28:30.414Z,1031.47
2019-02-23T11:29:30.465Z,1031.43
2019-02-23T11:30:30.345Z,1031.44
2019-02-23T11:31:30.322Z,1031.42
2019-02-23T11:32:30.314Z,1031.40
2019-02-23T11:33:30.263Z,1031.44
2019-02-23T11:34:30.221Z,1031.44
2019-02-23T11:35:30.215Z,1031.39
2019-02-23T11:36:30.210Z,1031.40
2019-02-23T11:37:30.143Z,1031.36
2019-02-23T11:38:30.114Z,1031.36
2019-02-23T11:39:30.065Z,1031.34
2019-02-23T11:40:30.056Z,1031.34
2019-02-23T11:41:30.032Z,1031.29
2019-02-23T11:42:29.992Z,1031.33
2019-02-23T11:43:29.984Z,1031.27
2019-02-23T11:44:29.940Z,1031.25
2019-02-23T11:45:31.008Z,1031.27
2019-02-23T11:46:29.866Z,1031.20
2019-02-23T11:47:29.831Z,1031.20
2019-02-23T11:48:29.859Z,1031.23
2019-02-23T11:49:29.811Z,1031.23
2019-02-23T11:50:29.769Z,1031.19
2019-02-23T11:51:29.719Z,1031.17
2019-02-23T11:52:29.692Z,1031.20
2019-02-23T11:53:29.661Z,1031.16
2019-02-23T11:54:29.641Z,1031.18
2019-02-23T11:55:29.644Z,1031.20
2019-02-23T11:56:29.569Z,1031.18
2019-02-23T11:57:29.576Z,1031.18
2019-02-23T11:58:29.522Z,1031.13
2019-02-23T11:59:29.508Z,1031.14
2019-02-23T12:00:29.545Z,1031.12
2019-02-23T12:01:29.449Z,1031.17
2019-02-23T12:02:29.428Z,1031.17
2019-02-23T12:03:29.492Z,1031.13
2019-02-23T12:04:29.361Z,1031.14
2019-02-23T12:05:29.323Z,1031.12
2019-02-23T12:06:29.284Z,1031.09
2019-02-23T12:07:29.276Z,1031.06
2019-02-23T12:08:29.233Z,1031.08
2019-02-23T12:09:29.224Z,1031.07
2019-02-23T12:10:29.192Z,1031.11
2019-02-23T12:11:29.147Z,1031.11
2019-02-23T12:12:29.112Z,1031.05
2019-02-23T12:13:29.111Z,1031.13
2019-02-23T12:14:29.054Z,1031.09
2019-02-23T12:15:29.066Z,1031.08
2019-02-23T12:16:29.015Z,1031.09
2019-02-23T12:17:28.969Z,1031.13
2019-02-23T12:18:28.959Z,1031.10
2019-02-23T12:19:28.909Z,1031.10
2019-02-23T12:20:28.887Z,1031.11
2019-02-23T12:21:28.866Z,1031.08
2019-02-23T12:22:28.833Z,1031.06
2019-02-23T12:23:28.824Z,1031.04
2019-02-23T12:24:28.776Z,1031.02
2019-02-23T12:25:28.743Z,1031.02
2019-02-23T12:26:28.732Z,1031.00
2019-02-23T12:27:28.701Z,1031.02
2019-02-23T12:28:28.656Z,1031.04
2019-02-23T12:29:28.651Z,1030.95
2019-02-23T12:30:28.631Z,1031.01
2019-02-23T12:31:28.611Z,1030.98
2019-02-23T12:32:28.550Z,1030.95
2019-02-23T12:33:28.527Z,1030.95
2019-02-23T12:34:28.495Z,1030.94
2019-02-23T12:35:28.472Z,1030.91
2019-02-23T12:36:28.508Z,1030.94
2019-02-23T12:37:28.405Z,1030.92
2019-02-23T12:38:28.423Z,1030.89
2019-02-23T12:39:28.364Z,1030.93
2019-02-23T12:40:28.344Z,1030.87
2019-02-23T12:41:28.323Z,1030.83
2019-02-23T12:42:28.349Z,1030.83
2019-02-23T12:43:28.258Z,1030.81
2019-02-23T12:44:28.263Z,1030.83
2019-02-23T12:45:28.543Z,1030.79
2019-02-23T12:46:28.206Z,1030.80
2019-02-23T12:47:28.159Z,1030.78
2019-02-23T12:48:28.189Z,1030.77
2019-02-23T12:49:28.121Z,1030.75
2019-02-23T12:50:28.107Z,1030.79
2019-02-23T12:51:28.072Z,1030.78
2019-02-23T12:52:28.005Z,1030.77
2019-02-23T12:53:27.961Z,1030.76
2019-02-23T12:54:28.063Z,1030.76
2019-02-23T12:55:27.930Z,1030.75
2019-02-23T12:56:28.011Z,1030.76
2019-02-23T12:57:27.852Z,1030.77
2019-02-23T12:58:27.894Z,1030.74
2019-02-23T12:59:27.778Z,1030.78
2019-02-23T13:00:27.804Z,1030.75
2019-02-23T13:01:27.723Z,1030.72
2019-02-23T13:02:27.812Z,1030.74
2019-02-23T13:03:27.672Z,1030.72
2019-02-23T13:04:27.728Z,1030.70
2019-02-23T13:05:27.615Z,1030.72
2019-02-23T13:17:39.309Z,1030.56
2019-02-23T13:18:39.262Z,1030.53
2019-02-23T13:19:53.966Z,1030.54
2019-02-23T13:20:39.232Z,1030.52
2019-02-23T13:58:55.175Z,1030.15
2019-02-23T13:59:53.133Z,1030.17
2019-02-23T14:00:54.125Z,1030.14
2019-02-23T14:01:53.081Z,1030.17
2019-02-23T14:02:53.060Z,1030.15
2019-02-23T14:03:53.025Z,1030.15
2019-02-23T14:04:54.998Z,1030.21
2019-02-23T14:05:52.974Z,1030.18
2019-02-23T14:06:52.986Z,1030.22
2019-02-23T14:07:52.917Z,1030.22
2019-02-23T14:08:53.898Z,1030.19
2019-02-23T14:09:52.853Z,1030.17
2019-02-23T14:10:52.870Z,1030.19
2019-02-23T14:11:52.798Z,1030.16
2019-02-23T14:12:52.774Z,1030.15
2019-02-23T14:13:52.750Z,1030.20
2019-02-23T14:14:52.727Z,1030.19
2019-02-23T14:15:52.688Z,1030.16
2019-02-23T14:16:52.679Z,1030.12
2019-02-23T14:17:52.628Z,1030.18
2019-02-23T14:18:52.608Z,1030.13
2019-02-23T14:19:52.590Z,1030.16
2019-02-23T14:20:52.560Z,1030.18
2019-02-23T14:21:52.521Z,1030.22
2019-02-23T14:26:34.757Z,1030.21
2019-02-23T14:27:33.081Z,1030.22
2019-02-23T14:28:33.051Z,1030.21
2019-02-23T14:29:33.015Z,1030.24
2019-02-23T14:30:33.004Z,1030.25
2019-02-23T14:31:32.966Z,1030.28
2019-02-23T14:32:32.937Z,1030.29
2019-02-23T14:33:32.908Z,1030.32
2019-02-23T14:34:32.890Z,1030.32
2019-02-23T14:35:32.851Z,1030.36
2019-02-23T14:36:32.853Z,1030.34
2019-02-23T14:37:32.799Z,1030.37
2019-02-23T14:38:32.902Z,1030.36
2019-02-23T14:39:32.747Z,1030.32
2019-02-23T14:40:32.765Z,1030.36
2019-02-23T14:41:32.691Z,1030.34
2019-02-23T14:42:32.674Z,1030.35
2019-02-23T14:43:32.634Z,1030.35
2019-02-23T14:44:33.726Z,1030.37
2019-02-23T14:45:32.595Z,1030.36
2019-02-23T14:46:34.657Z,1030.39
2019-02-23T14:47:32.527Z,1030.41
2019-02-23T14:48:39.283Z,1030.47